createdAt,value
2022-11-30T08:08:23.909Z,12.18
2022-11-30T08:12:03.768Z,12.16
2022-11-30T08:15:19.319Z,12.06
2022-11-30T08:17:52.153Z,12.09
2022-11-30T08:20:22.454Z,12.04
2022-11-30T08:22:56.962Z,12.11
2022-11-30T08:25:25.773Z,12.04
2022-11-30T08:28:11.394Z,11.92
2022-11-30T08:30:41.985Z,12.14
2022-11-30T08:33:21.440Z,12.01
2022-11-30T08:35:59.713Z,12.19
2022-11-30T08:38:35.087Z,12.19
2022-11-30T08:41:19.565Z,12.09
2022-11-30T08:43:59.697Z,12.39
2022-11-30T08:46:55.715Z,12.46
2022-11-30T08:49:38.824Z,12.38
2022-11-30T08:52:18.941Z,12.44
2022-11-30T08:55:07.095Z,12.50
2022-11-30T08:57:45.756Z,12.55
2022-11-30T09:00:23.190Z,12.62
2022-11-30T09:07:05.300Z,12.66
2022-11-30T09:09:36.977Z,12.83
2022-11-30T09:12:07.150Z,12.89
2022-11-30T09:14:37.662Z,12.97
2022-11-30T09:17:19.537Z,13.04
2022-11-30T09:19:51.378Z,13.09
2022-11-30T09:22:23.101Z,13.03
2022-11-30T09:24:55.767Z,13.16
2022-11-30T09:27:30.842Z,13.18
2022-11-30T09:29:59.962Z,13.17
2022-11-30T09:32:32.382Z,13.10
2022-11-30T09:35:03.143Z,13.03
2022-11-30T09:37:50.664Z,13.01
2022-11-30T09:40:19.669Z,12.96
2022-11-30T09:43:00.075Z,12.91
2022-11-30T09:45:43.561Z,12.91
2022-11-30T09:48:31.125Z,12.88
2022-11-30T09:51:01.722Z,12.94
2022-11-30T09:53:41.858Z,12.97
2022-11-30T09:56:21.497Z,13.06
2022-11-30T09:58:56.935Z,13.12
2022-11-30T10:01:41.137Z,13.21
2022-11-30T10:04:18.879Z,13.26
2022-11-30T10:06:56.411Z,13.32
2022-11-30T10:09:34.489Z,13.32
2022-11-30T10:12:08.028Z,13.20
2022-11-30T10:15:18.876Z,13.40
2022-11-30T10:17:54.104Z,13.39
2022-11-30T10:20:44.027Z,13.35
2022-11-30T10:23:41.388Z,13.42
2022-11-30T10:26:23.746Z,13.50
2022-11-30T10:28:56.031Z,13.59
2022-11-30T10:31:35.736Z,13.66
2022-11-30T10:34:15.540Z,13.77
2022-11-30T10:36:48.180Z,13.86
2022-11-30T10:39:21.005Z,13.89
2022-11-30T10:41:54.752Z,13.95
2022-11-30T10:44:26.155Z,13.87
2022-11-30T10:46:58.483Z,13.91
2022-11-30T10:49:30.684Z,13.93
2022-11-30T10:52:03.798Z,13.91
2022-11-30T10:59:13.297Z,13.92
2022-11-30T11:08:19.125Z,13.97
2022-11-30T11:14:37.926Z,14.10
2022-11-30T11:17:22.715Z,14.18
2022-11-30T11:19:51.626Z,14.25
2022-11-30T11:22:27.026Z,14.36
2022-11-30T11:24:58.776Z,14.36
2022-11-30T11:27:30.275Z,14.44
2022-11-30T11:30:14.595Z,14.44
2022-11-30T11:33:01.414Z,14.52
2022-11-30T11:35:40.606Z,14.53
2022-11-30T11:38:32.284Z,14.57
2022-11-30T11:41:11.854Z,14.62
2022-11-30T11:44:01.188Z,14.64
2022-11-30T11:46:33.638Z,14.69
2022-11-30T11:49:18.518Z,14.70
2022-11-30T11:52:12.898Z,14.73
2022-11-30T11:54:53.069Z,14.77
2022-11-30T11:57:37.978Z,14.81
2022-11-30T12:00:25.439Z,14.84
2022-11-30T12:03:12.254Z,14.82
2022-11-30T12:05:50.367Z,14.85
2022-11-30T12:08:30.213Z,14.86
2022-11-30T12:11:05.900Z,14.85
2022-11-30T12:13:43.159Z,14.85
2022-11-30T12:16:37.527Z,14.88
2022-11-30T12:22:35.836Z,14.98
2022-11-30T12:25:25.168Z,15.14
2022-11-30T12:28:08.852Z,15.28
2022-11-30T12:30:57.303Z,15.29
2022-11-30T12:33:38.918Z,15.21
2022-11-30T12:36:12.750Z,15.29
2022-11-30T12:38:47.512Z,15.26
2022-11-30T12:49:16.155Z,15.13
2022-11-30T12:51:46.179Z,15.13
2022-11-30T12:54:18.081Z,15.11
2022-11-30T12:56:47.593Z,15.09
2022-11-30T12:59:20.010Z,15.06
2022-11-30T13:01:53.697Z,15.02
2022-11-30T13:04:25.565Z,14.96
2022-11-30T13:06:54.902Z,14.89
2022-11-30T13:09:26.535Z,14.87
2022-11-30T13:11:58.029Z,14.83
2022-11-30T13:14:26.981Z,14.82
2022-11-30T13:17:02.916Z,14.79
2022-11-30T13:19:41.128Z,14.76
2022-11-30T13:22:11.309Z,14.71
2022-11-30T13:24:44.511Z,14.66
2022-11-30T13:27:18.944Z,14.64
2022-11-30T13:30:03.068Z,14.70
2022-11-30T13:32:57.305Z,14.68
2022-11-30T13:35:59.086Z,14.64
2022-11-30T13:38:38.110Z,14.62
2022-11-30T13:41:13.352Z,14.56
2022-11-30T13:43:45.194Z,14.59
2022-11-30T13:46:16.547Z,14.63
2022-11-30T13:48:47.631Z,14.66
2022-11-30T13:51:31.284Z,14.69
2022-11-30T13:54:28.131Z,14.72
2022-11-30T13:56:57.952Z,14.73
2022-11-30T13:59:40.926Z,14.77
2022-11-30T14:05:46.686Z,14.77
2022-11-30T14:08:38.990Z,14.78
2022-11-30T14:11:41.786Z,14.82
2022-11-30T14:14:45.796Z,14.77
2022-11-30T14:17:22.196Z,14.78
2022-11-30T14:19:52.091Z,14.79
2022-11-30T14:22:20.785Z,14.84
2022-11-30T14:24:49.306Z,14.86
2022-11-30T14:27:19.695Z,14.85
2022-11-30T14:29:53.387Z,14.87
2022-11-30T14:32:29.229Z,14.88
2022-11-30T14:35:03.389Z,14.89
2022-11-30T14:37:33.844Z,14.92
2022-11-30T14:40:03.534Z,14.87
2022-11-30T14:42:32.512Z,14.89
2022-11-30T14:45:03.103Z,14.90
2022-11-30T14:47:33.870Z,14.88
2022-11-30T14:50:06.903Z,14.83
2022-11-30T14:52:46.337Z,14.88
2022-11-30T14:55:19.126Z,14.84
2022-11-30T14:57:53.120Z,14.78
2022-11-30T15:00:41.386Z,14.82
2022-11-30T15:03:20.128Z,14.78
2022-11-30T15:05:51.370Z,14.78
2022-11-30T15:08:19.798Z,14.63
2022-11-30T15:10:47.930Z,14.78
2022-11-30T15:13:18.700Z,14.76
2022-11-30T15:15:57.326Z,14.77
2022-11-30T15:18:25.961Z,14.72
2022-11-30T15:20:58.120Z,14.72
2022-11-30T15:33:12.576Z,14.40
2022-11-30T15:36:13.626Z,14.41
2022-11-30T15:38:34.500Z,14.32
2022-11-30T15:41:05.456Z,14.26
2022-11-30T15:43:38.056Z,14.14
2022-11-30T15:46:07.810Z,14.09
2022-11-30T15:48:39.576Z,14.00
2022-11-30T15:51:10.127Z,13.94
2022-11-30T15:53:50.241Z,13.89
2022-11-30T15:59:47.755Z,13.63
2022-11-30T16:02:29.810Z,13.62
2022-11-30T16:05:27.784Z,13.53
2022-11-30T16:07:57.428Z,13.46
2022-11-30T16:10:26.832Z,13.41
2022-11-30T16:12:55.318Z,13.39
2022-11-30T16:15:25.504Z,13.38
2022-11-30T16:17:54.269Z,13.35
2022-11-30T16:20:22.657Z,13.34
2022-11-30T16:22:52.911Z,13.32
2022-11-30T16:26:43.171Z,13.25
2022-11-30T16:32:49.584Z,13.34
2022-11-30T16:36:12.078Z,13.38
2022-11-30T16:39:40.300Z,13.37
2022-11-30T16:42:16.341Z,13.41
2022-11-30T16:44:51.876Z,13.52
2022-11-30T16:47:21.805Z,13.54
2022-11-30T16:49:51.837Z,13.55
2022-11-30T16:52:22.960Z,13.62
2022-11-30T16:54:56.066Z,13.62
2022-11-30T16:57:30.829Z,13.64
2022-11-30T16:59:59.716Z,13.64
2022-11-30T17:02:29.053Z,13.64
2022-11-30T17:05:00.792Z,13.67
2022-11-30T17:07:33.057Z,13.67
2022-11-30T17:10:04.437Z,13.65
2022-11-30T17:12:38.756Z,13.67
2022-11-30T17:18:02.823Z,13.55
2022-11-30T17:23:41.119Z,13.55
2022-11-30T17:26:12.479Z,13.49
2022-11-30T17:28:42.871Z,13.48
2022-11-30T17:31:12.868Z,13.45
2022-11-30T17:34:04.271Z,13.23
2022-11-30T17:36:48.396Z,13.40
2022-11-30T17:39:18.393Z,13.40
2022-11-30T17:41:56.031Z,13.39
2022-11-30T17:44:29.058Z,13.31
2022-11-30T17:47:05.139Z,13.34
2022-11-30T17:52:46.911Z,13.23
2022-11-30T17:55:33.899Z,13.26
2022-11-30T17:58:04.803Z,13.20
2022-11-30T18:00:44.552Z,13.20
2022-11-30T18:03:15.521Z,13.16
2022-11-30T18:05:49.056Z,13.18
2022-11-30T18:08:26.743Z,13.13
2022-11-30T18:10:58.121Z,13.12
2022-11-30T18:13:35.290Z,13.09
2022-11-30T18:16:16.297Z,13.09
2022-11-30T18:18:48.533Z,13.05
2022-11-30T18:21:18.881Z,13.04
2022-11-30T18:23:49.059Z,13.05
2022-11-30T18:26:25.865Z,13.01
2022-11-30T18:29:03.088Z,13.03
2022-11-30T18:31:37.556Z,13.01
2022-11-30T18:34:09.309Z,13.01
2022-11-30T18:36:43.884Z,12.96
2022-11-30T18:39:13.887Z,12.91
2022-11-30T18:41:43.550Z,12.88
2022-11-30T18:44:30.495Z,12.77
2022-11-30T18:47:01.458Z,12.76
2022-11-30T18:49:29.872Z,12.66
2022-11-30T18:52:11.742Z,12.55
2022-11-30T18:54:47.933Z,12.54
2022-11-30T18:57:33.922Z,12.49
2022-11-30T19:00:15.584Z,12.53
2022-11-30T19:03:05.805Z,12.52
2022-11-30T19:05:36.378Z,12.47
2022-11-30T19:08:15.059Z,12.49
2022-11-30T19:10:51.663Z,12.46
2022-11-30T19:13:34.117Z,12.43
2022-11-30T19:19:19.981Z,12.24
2022-11-30T19:22:06.952Z,12.26
2022-11-30T19:24:44.577Z,12.25
2022-11-30T19:27:43.435Z,12.17
2022-11-30T19:37:47.659Z,12.03
2022-11-30T19:41:11.928Z,12.02
2022-11-30T19:44:22.873Z,12.03
2022-11-30T19:47:18.625Z,12.03
2022-11-30T19:50:12.021Z,12.04
2022-11-30T19:53:06.929Z,12.08
2022-11-30T19:56:05.221Z,12.09
2022-11-30T20:05:03.672Z,12.18
2022-11-30T20:14:05.270Z,12.23
2022-11-30T20:16:51.596Z,12.24
2022-11-30T20:19:32.344Z,12.22
2022-11-30T20:22:41.990Z,12.22
2022-11-30T20:25:32.225Z,12.26
2022-11-30T20:28:09.681Z,12.23
2022-11-30T20:31:15.416Z,12.24
2022-11-30T20:33:49.187Z,12.23
2022-11-30T20:36:35.353Z,12.24
2022-11-30T20:39:08.336Z,12.27
2022-11-30T20:41:54.340Z,12.27
2022-11-30T20:44:37.039Z,12.33
2022-11-30T20:47:13.697Z,12.36
2022-11-30T20:49:47.871Z,12.37
2022-11-30T20:52:32.244Z,12.39
2022-11-30T20:55:01.986Z,12.41
2022-11-30T20:57:32.191Z,12.43
2022-11-30T21:00:11.655Z,12.45
2022-11-30T21:05:40.950Z,12.41
2022-11-30T21:08:12.825Z,12.38
2022-11-30T21:10:44.262Z,12.40
2022-11-30T21:13:13.503Z,12.37
2022-11-30T21:16:05.725Z,12.39
2022-11-30T21:18:39.126Z,12.36
2022-11-30T21:28:55.744Z,12.37
2022-11-30T22:17:21.538Z,11.62
2022-11-30T22:20:09.415Z,11.60
2022-11-30T22:22:41.259Z,11.55
2022-11-30T22:25:50.316Z,11.51
2022-11-30T22:28:31.723Z,11.54
2022-11-30T22:31:08.097Z,11.51
2022-11-30T22:33:43.822Z,11.52
2022-11-30T22:36:18.778Z,11.51
2022-11-30T22:39:01.335Z,11.49
2022-11-30T22:41:32.848Z,11.45
2022-11-30T22:44:17.477Z,11.40
2022-11-30T22:46:51.765Z,11.41
2022-11-30T22:49:30.166Z,11.39
2022-11-30T22:52:02.334Z,11.35
2022-11-30T22:54:31.659Z,11.30
2022-11-30T22:57:01.673Z,11.28
2022-11-30T22:59:30.672Z,11.25
2022-11-30T23:02:18.305Z,11.20
2022-11-30T23:30:01.088Z,11.07
2022-11-30T23:46:18.463Z,11.13
